Time;durP1;ratioP1;P1;durP2;ratioP2;P2;SDS_P1;SDS_P2;PMS_P1;PMS_P2;Temp;Humidity;BMP_temperature;BMP_pressure;BME280_temperature;BME280_humidity;BME280_pressure;Samples;Min_cycle;Max_cycle;Signal;HPM_P1;HPM_P2
2022/11/23 00:00:31;;;;;;;9.30;2.70;;;5.70;36.40;;;;;;5021939;28;20730;-65
2022/11/23 00:03:00;;;;;;;8.37;3.30;;;5.70;36.30;;;;;;5026408;28;20451;-64
2022/11/23 00:05:28;;;;;;;8.17;3.00;;;5.60;36.30;;;;;;5025833;28;20470;-64
2022/11/23 00:07:55;;;;;;;6.50;2.83;;;5.60;36.40;;;;;;5024753;28;20973;-64
2022/11/23 00:10:22;;;;;;;7.37;2.90;;;5.60;36.30;;;;;;5022697;28;20455;-64
2022/11/23 00:12:49;;;;;;;7.20;2.27;;;5.60;36.30;;;;;;5026176;28;21006;-66
2022/11/23 00:15:16;;;;;;;10.77;3.60;;;5.50;36.30;;;;;;5028382;28;20463;-65
2022/11/23 00:17:43;;;;;;;8.80;2.47;;;5.50;36.30;;;;;;5023095;28;20475;-65
2022/11/23 00:20:11;;;;;;;10.13;3.60;;;5.50;36.40;;;;;;5026610;28;20545;-65
2022/11/23 00:22:38;;;;;;;5.10;2.53;;;5.50;36.40;;;;;;5022294;28;20463;-65
2022/11/23 00:25:05;;;;;;;8.87;2.90;;;5.40;36.30;;;;;;5022424;28;20986;-65
2022/11/23 00:27:32;;;;;;;7.70;2.40;;;5.40;36.40;;;;;;5021636;28;20493;-65
2022/11/23 00:29:59;;;;;;;7.77;3.10;;;5.40;36.40;;;;;;5023948;28;21005;-65
2022/11/23 00:32:28;;;;;;;11.47;2.60;;;5.40;36.40;;;;;;5022740;28;20502;-65
2022/11/23 00:34:55;;;;;;;5.20;2.40;;;5.40;36.50;;;;;;5026955;28;20521;-65
2022/11/23 00:37:23;;;;;;;10.27;2.33;;;5.40;36.50;;;;;;5025492;28;20482;-66
2022/11/23 00:39:50;;;;;;;6.40;2.50;;;5.40;36.70;;;;;;5027427;28;20459;-65
2022/11/23 00:42:17;;;;;;;7.20;2.63;;;5.40;36.80;;;;;;5023311;28;21006;-65
2022/11/23 00:44:44;;;;;;;10.03;2.80;;;5.40;37.40;;;;;;5021907;28;20490;-66
2022/11/23 00:47:11;;;;;;;14.93;3.20;;;5.50;36.90;;;;;;5025096;28;20490;-64
2022/11/23 00:49:38;;;;;;;9.90;2.57;;;5.50;37.00;;;;;;5025674;28;20487;-64
2022/11/23 00:52:05;;;;;;;9.77;2.73;;;5.50;37.00;;;;;;5025365;28;20498;-64
2022/11/23 00:54:33;;;;;;;6.47;3.03;;;5.50;37.10;;;;;;5016947;28;20459;-65
2022/11/23 00:57:00;;;;;;;6.67;2.20;;;5.50;37.10;;;;;;5022761;28;20507;-65
2022/11/23 00:59:28;;;;;;;8.63;4.00;;;5.50;37.00;;;;;;5025679;28;20513;-65
2022/11/23 01:01:55;;;;;;;5.43;2.17;;;5.50;37.10;;;;;;5023710;28;20485;-65
2022/11/23 01:04:21;;;;;;;5.93;2.23;;;5.60;37.00;;;;;;5018512;28;20455;-65
2022/11/23 01:06:48;;;;;;;5.60;1.90;;;5.60;37.00;;;;;;5025926;28;20461;-66
2022/11/23 01:09:17;;;;;;;8.50;2.53;;;5.70;37.20;;;;;;5025866;28;20483;-65
2022/11/23 01:11:45;;;;;;;8.17;2.20;;;5.70;37.10;;;;;;5020215;28;20474;-65
2022/11/23 01:14:12;;;;;;;8.30;2.57;;;5.70;37.00;;;;;;5026086;28;20467;-65
2022/11/23 01:16:40;;;;;;;5.47;2.13;;;5.80;36.90;;;;;;5018945;28;20460;-65
2022/11/23 01:19:10;;;;;;;8.67;2.67;;;5.80;36.80;;;;;;5023199;28;20460;-65
2022/11/23 01:21:37;;;;;;;6.47;2.33;;;5.80;36.80;;;;;;5017940;28;20557;-65
2022/11/23 01:24:06;;;;;;;5.83;2.77;;;5.80;36.60;;;;;;5031238;28;20945;-66
2022/11/23 01:26:32;;;;;;;7.03;2.10;;;5.80;36.70;;;;;;5020895;28;20459;-66
2022/11/23 01:29:01;;;;;;;6.10;2.17;;;5.80;36.60;;;;;;5021413;28;20507;-65
2022/11/23 01:31:27;;;;;;;7.10;2.53;;;5.70;36.70;;;;;;5019551;28;20479;-65
2022/11/23 01:33:55;;;;;;;7.40;2.33;;;5.70;36.60;;;;;;5023960;28;20470;-65
2022/11/23 01:36:25;;;;;;;6.77;2.67;;;5.70;36.60;;;;;;5023053;28;20867;-65
2022/11/23 01:38:53;;;;;;;7.50;2.97;;;5.70;36.70;;;;;;5023281;28;20578;-65
2022/11/23 01:41:21;;;;;;;14.53;2.87;;;5.60;36.70;;;;;;5020966;28;20550;-65
2022/11/23 01:43:48;;;;;;;6.93;2.60;;;5.70;36.70;;;;;;5017428;28;20466;-66
2022/11/23 01:46:17;;;;;;;5.30;2.43;;;5.70;36.80;;;;;;5019039;28;20712;-65
2022/11/23 01:48:47;;;;;;;7.80;2.77;;;5.70;36.70;;;;;;5018601;28;20576;-66
2022/11/23 01:51:16;;;;;;;13.07;2.57;;;5.80;36.60;;;;;;5020485;28;20559;-65
2022/11/23 01:53:45;;;;;;;5.30;2.50;;;5.80;36.40;;;;;;5024237;28;20455;-65
2022/11/23 01:56:15;;;;;;;5.90;2.40;;;5.80;36.30;;;;;;5026139;28;20459;-65
2022/11/23 01:58:46;;;;;;;7.30;2.03;;;5.80;36.40;;;;;;5024183;28;20568;-65
2022/11/23 02:01:14;;;;;;;6.07;2.30;;;5.80;36.20;;;;;;5022056;28;20471;-67
2022/11/23 02:03:43;;;;;;;6.80;2.57;;;5.80;36.30;;;;;;5017532;28;20467;-67
2022/11/23 02:06:15;;;;;;;7.73;2.50;;;5.80;36.30;;;;;;5022826;28;20463;-66
2022/11/23 02:08:42;;;;;;;9.00;2.40;;;5.80;36.50;;;;;;5022627;28;20499;-67
2022/11/23 02:11:10;;;;;;;7.63;2.60;;;5.80;36.30;;;;;;5023828;28;20461;-66
2022/11/23 02:13:37;;;;;;;6.03;2.20;;;5.80;36.30;;;;;;5016625;28;20469;-66
2022/11/23 02:16:04;;;;;;;6.33;2.97;;;5.80;36.40;;;;;;5019901;28;20467;-66
2022/11/23 02:18:35;;;;;;;6.37;2.63;;;5.80;36.50;;;;;;5023198;28;20819;-66
2022/11/23 02:21:04;;;;;;;6.93;2.47;;;5.80;36.40;;;;;;5023125;28;20460;-65
2022/11/23 02:23:38;;;;;;;11.27;2.40;;;5.90;36.60;;;;;;5020301;28;20455;-66
2022/11/23 02:26:09;;;;;;;5.93;2.37;;;5.90;36.50;;;;;;5025285;28;20503;-66
2022/11/23 02:28:40;;;;;;;7.20;2.60;;;5.90;36.50;;;;;;5020803;28;20784;-65
2022/11/23 02:31:06;;;;;;;6.50;2.63;;;5.90;36.50;;;;;;5021829;28;20497;-66
2022/11/23 02:33:33;;;;;;;8.40;2.20;;;5.90;36.40;;;;;;5020799;28;20463;-66
2022/11/23 02:36:01;;;;;;;6.57;2.60;;;5.90;36.40;;;;;;5017634;28;20468;-66
2022/11/23 02:38:32;;;;;;;9.83;3.23;;;5.90;36.40;;;;;;5022109;28;20997;-65
2022/11/23 02:40:58;;;;;;;7.07;2.60;;;6.00;36.40;;;;;;5015273;28;20470;-66
2022/11/23 02:43:27;;;;;;;8.77;3.20;;;6.00;36.40;;;;;;5016789;28;20458;-66
2022/11/23 02:45:56;;;;;;;5.73;2.70;;;6.00;36.40;;;;;;5015253;28;20574;-66
2022/11/23 02:48:23;;;;;;;6.50;1.97;;;6.00;36.40;;;;;;5021398;28;20858;-65
2022/11/23 02:50:50;;;;;;;10.57;3.23;;;6.00;36.30;;;;;;5024628;28;20793;-65
2022/11/23 02:53:17;;;;;;;6.33;2.63;;;6.00;36.20;;;;;;5015639;28;20454;-66
2022/11/23 02:55:44;;;;;;;10.13;2.90;;;6.00;36.30;;;;;;5022695;28;20809;-66
2022/11/23 02:58:11;;;;;;;5.47;2.40;;;6.00;36.20;;;;;;5026822;28;20489;-66
2022/11/23 03:00:40;;;;;;;6.00;2.73;;;6.00;36.20;;;;;;5021008;28;20479;-65
2022/11/23 03:03:06;;;;;;;7.40;3.30;;;6.00;36.70;;;;;;5018160;28;20459;-66
2022/11/23 03:05:33;;;;;;;6.07;2.50;;;6.00;36.10;;;;;;5018402;28;20456;-66
2022/11/23 03:08:00;;;;;;;6.63;2.43;;;6.00;36.10;;;;;;5026865;28;21021;-65
2022/11/23 03:10:27;;;;;;;7.10;2.43;;;6.00;36.10;;;;;;5026828;28;20486;-65
2022/11/23 03:12:55;;;;;;;5.90;2.37;;;6.00;36.10;;;;;;5026764;28;20463;-65
2022/11/23 03:15:22;;;;;;;7.40;3.03;;;6.00;36.00;;;;;;5017087;28;20458;-65
2022/11/23 03:17:50;;;;;;;6.57;3.30;;;5.90;36.10;;;;;;5026914;28;20483;-65
2022/11/23 03:20:17;;;;;;;8.13;2.87;;;6.00;36.00;;;;;;5021750;28;21159;-65
2022/11/23 03:22:44;;;;;;;12.37;3.60;;;5.90;36.00;;;;;;5021979;28;20977;-65
2022/11/23 03:25:11;;;;;;;7.00;2.80;;;6.00;36.00;;;;;;5025347;28;20457;-65
2022/11/23 03:27:38;;;;;;;5.80;2.67;;;5.90;36.10;;;;;;5023029;28;20479;-65
2022/11/23 03:30:07;;;;;;;5.37;2.57;;;5.90;36.60;;;;;;5024724;28;20997;-65
2022/11/23 03:32:33;;;;;;;9.13;3.13;;;5.90;36.00;;;;;;5018184;28;20520;-65
2022/11/23 03:35:02;;;;;;;8.00;2.73;;;5.90;36.00;;;;;;5022721;28;21110;-65
2022/11/23 03:37:29;;;;;;;10.53;3.30;;;5.90;36.10;;;;;;5016773;28;20496;-66
2022/11/23 03:39:55;;;;;;;6.43;2.97;;;5.90;36.10;;;;;;5023796;28;20491;-66
2022/11/23 03:42:22;;;;;;;6.70;2.73;;;5.80;36.60;;;;;;5020110;28;20477;-65
2022/11/23 03:44:49;;;;;;;6.90;2.90;;;5.80;36.10;;;;;;5027381;28;20462;-65
2022/11/23 03:47:16;;;;;;;9.63;3.67;;;5.80;36.10;;;;;;5015112;28;20486;-66
2022/11/23 03:49:43;;;;;;;6.30;2.70;;;5.80;36.20;;;;;;5022934;28;20490;-65
2022/11/23 03:52:11;;;;;;;11.13;3.40;;;5.80;36.20;;;;;;5017810;28;20455;-65
2022/11/23 03:54:37;;;;;;;7.93;3.77;;;5.80;36.30;;;;;;5025203;28;20833;-65
2022/11/23 03:57:04;;;;;;;9.10;3.40;;;5.80;36.40;;;;;;5028164;28;21240;-65
2022/11/23 03:59:31;;;;;;;6.93;2.93;;;5.80;36.40;;;;;;5025225;28;20486;-65
2022/11/23 04:01:58;;;;;;;9.63;3.73;;;5.80;36.40;;;;;;5018311;28;20487;-66
2022/11/23 04:04:24;;;;;;;6.77;3.40;;;5.80;36.50;;;;;;5019329;28;20552;-65
2022/11/23 04:06:52;;;;;;;15.60;3.30;;;5.80;36.60;;;;;;5022766;28;20481;-66
2022/11/23 04:09:21;;;;;;;9.90;3.40;;;5.80;36.60;;;;;;5024052;28;20895;-66
2022/11/23 04:11:48;;;;;;;6.13;2.97;;;5.80;36.70;;;;;;5026552;28;20469;-66
2022/11/23 04:14:14;;;;;;;7.33;2.83;;;5.80;36.70;;;;;;5016339;28;20467;-66
2022/11/23 04:16:41;;;;;;;8.53;2.80;;;5.80;36.70;;;;;;5028847;28;20465;-66
2022/11/23 04:19:08;;;;;;;6.73;3.00;;;5.80;36.70;;;;;;5016303;28;20471;-66
2022/11/23 04:21:35;;;;;;;8.63;2.73;;;5.80;36.80;;;;;;5026273;28;21078;-66
2022/11/23 04:24:02;;;;;;;7.40;3.13;;;5.90;36.90;;;;;;5016462;28;20470;-66
2022/11/23 04:26:30;;;;;;;5.90;2.87;;;5.80;36.90;;;;;;5025069;28;20599;-66
2022/11/23 04:28:57;;;;;;;7.30;3.97;;;5.90;37.00;;;;;;5020646;28;20463;-65
2022/11/23 04:31:23;;;;;;;8.27;3.60;;;5.90;36.90;;;;;;5019067;28;20506;-65
2022/11/23 04:33:50;;;;;;;11.40;3.20;;;5.90;36.90;;;;;;5018594;28;20464;-64
2022/11/23 04:36:17;;;;;;;7.53;3.30;;;5.90;36.90;;;;;;5025705;28;20459;-65
2022/11/23 04:38:44;;;;;;;6.70;3.20;;;5.90;37.20;;;;;;5016255;28;20999;-65
2022/11/23 04:41:11;;;;;;;8.83;3.37;;;5.90;37.20;;;;;;5005028;28;20475;-65
2022/11/23 04:43:39;;;;;;;6.30;3.00;;;5.90;37.20;;;;;;5024798;28;20834;-65
2022/11/23 04:46:06;;;;;;;5.90;2.60;;;5.90;37.20;;;;;;5025377;28;21210;-65
2022/11/23 04:48:33;;;;;;;8.87;2.70;;;6.00;37.20;;;;;;5017833;28;20475;-65
2022/11/23 04:50:59;;;;;;;8.43;3.00;;;6.00;37.10;;;;;;5026048;28;21014;-65
2022/11/23 04:53:26;;;;;;;6.47;3.23;;;6.00;37.10;;;;;;5017882;28;20460;-63
2022/11/23 04:55:53;;;;;;;6.27;2.77;;;5.90;37.20;;;;;;5020422;28;20458;-65
2022/11/23 04:58:20;;;;;;;8.70;3.03;;;6.00;37.20;;;;;;5019494;28;20486;-65
2022/11/23 05:00:48;;;;;;;10.20;3.50;;;5.90;37.20;;;;;;5019989;28;20486;-65
2022/11/23 05:03:15;;;;;;;6.93;2.70;;;6.00;37.20;;;;;;5016856;28;20491;-65
2022/11/23 05:05:42;;;;;;;9.60;4.40;;;6.00;37.20;;;;;;5025478;28;20470;-65
2022/11/23 05:08:10;;;;;;;9.73;3.20;;;6.00;37.40;;;;;;5017268;28;20522;-65
2022/11/23 05:10:37;;;;;;;8.53;3.43;;;6.00;37.30;;;;;;5017553;28;20487;-65
2022/11/23 05:13:04;;;;;;;9.63;4.10;;;6.00;37.20;;;;;;5022712;28;20977;-64
2022/11/23 05:15:31;;;;;;;8.10;3.80;;;6.00;37.20;;;;;;5010942;28;20995;-64
2022/11/23 05:18:03;;;;;;;10.10;3.40;;;6.00;37.20;;;;;;5026787;28;20475;-65
2022/11/23 05:20:30;;;;;;;7.10;3.30;;;5.90;37.20;;;;;;5021015;28;21163;-64
2022/11/23 05:22:57;;;;;;;8.13;3.77;;;6.00;37.20;;;;;;5016821;28;20989;-65
2022/11/23 05:25:24;;;;;;;9.50;3.60;;;6.00;37.30;;;;;;5025769;28;20450;-64
2022/11/23 05:27:51;;;;;;;5.87;3.23;;;6.00;37.20;;;;;;5015701;28;20849;-65
2022/11/23 05:30:18;;;;;;;8.57;4.10;;;6.00;37.30;;;;;;5016086;28;20475;-64
2022/11/23 05:32:45;;;;;;;11.03;3.93;;;5.90;37.30;;;;;;5027633;28;21009;-65
2022/11/23 05:35:13;;;;;;;15.40;4.67;;;5.90;37.20;;;;;;5017455;28;20459;-65
2022/11/23 05:37:41;;;;;;;8.53;3.63;;;5.90;37.30;;;;;;5024519;28;20514;-65
2022/11/23 05:40:09;;;;;;;8.80;4.00;;;5.90;37.30;;;;;;5021304;28;20538;-64
2022/11/23 05:42:36;;;;;;;6.40;3.70;;;5.90;37.30;;;;;;5022826;28;20529;-65
2022/11/23 05:45:03;;;;;;;8.10;4.50;;;5.90;37.30;;;;;;5025480;28;20486;-65
2022/11/23 05:47:30;;;;;;;8.33;3.70;;;5.90;37.30;;;;;;5015599;28;20505;-65
2022/11/23 05:49:56;;;;;;;8.57;4.27;;;5.90;37.20;;;;;;5019730;28;20475;-65
2022/11/23 05:52:26;;;;;;;8.90;4.47;;;5.90;37.20;;;;;;5027350;28;20455;-64
2022/11/23 05:54:53;;;;;;;12.90;3.87;;;5.90;37.20;;;;;;5023395;28;20844;-64
2022/11/23 05:57:21;;;;;;;7.00;3.73;;;5.90;37.20;;;;;;5015809;28;20566;-65
2022/11/23 05:59:48;;;;;;;7.77;4.33;;;5.90;37.20;;;;;;5023706;28;20459;-64
2022/11/23 06:02:15;;;;;;;8.90;4.37;;;5.80;37.20;;;;;;5023683;28;20503;-65
2022/11/23 06:04:42;;;;;;;9.73;3.97;;;5.90;37.30;;;;;;5022871;28;20468;-65
2022/11/23 06:07:08;;;;;;;9.37;4.33;;;5.90;37.20;;;;;;5017991;28;20493;-65
2022/11/23 06:09:36;;;;;;;8.33;4.17;;;5.90;37.10;;;;;;5018005;28;20471;-65
2022/11/23 06:12:04;;;;;;;8.97;4.90;;;5.90;37.10;;;;;;5012797;28;20479;-64
2022/11/23 06:14:30;;;;;;;8.70;4.10;;;5.90;37.20;;;;;;5024275;28;20455;-64
2022/11/23 06:16:57;;;;;;;9.70;4.90;;;5.90;37.20;;;;;;5018415;28;20489;-64
2022/11/23 06:19:24;;;;;;;8.60;4.17;;;5.90;37.20;;;;;;5022212;28;20455;-64
2022/11/23 06:21:51;;;;;;;7.80;4.60;;;5.90;37.20;;;;;;5018534;28;20448;-64
2022/11/23 06:24:18;;;;;;;13.43;4.60;;;5.90;37.20;;;;;;5021615;28;20497;-64
2022/11/23 06:26:46;;;;;;;7.10;4.27;;;5.80;37.20;;;;;;5022762;28;21023;-64
2022/11/23 06:29:13;;;;;;;10.40;5.17;;;5.80;37.20;;;;;;5018168;28;20460;-64
2022/11/23 06:31:39;;;;;;;9.30;4.27;;;5.80;37.20;;;;;;5018130;28;20479;-64
2022/11/23 06:34:06;;;;;;;8.57;5.00;;;5.80;37.20;;;;;;5027417;28;20461;-64
2022/11/23 06:36:33;;;;;;;9.90;4.20;;;5.80;37.20;;;;;;5023402;28;20462;-64
2022/11/23 06:38:59;;;;;;;8.70;4.83;;;5.80;37.20;;;;;;5023865;28;20459;-64
2022/11/23 06:41:26;;;;;;;8.17;4.67;;;5.90;37.30;;;;;;5021848;28;20483;-64
2022/11/23 06:43:54;;;;;;;10.13;5.07;;;5.80;37.30;;;;;;5022880;28;20464;-64
2022/11/23 06:46:21;;;;;;;9.80;5.17;;;5.90;37.30;;;;;;5025141;28;20822;-64
2022/11/23 06:48:48;;;;;;;8.90;5.50;;;5.90;37.30;;;;;;5020705;28;20477;-64
2022/11/23 06:51:16;;;;;;;8.27;5.07;;;5.90;37.40;;;;;;5019792;28;20482;-64
2022/11/23 06:53:43;;;;;;;12.10;5.30;;;6.00;37.40;;;;;;5022952;28;20467;-64
2022/11/23 06:56:09;;;;;;;11.10;5.20;;;6.00;37.30;;;;;;5021290;28;20463;-64
2022/11/23 06:58:36;;;;;;;9.00;5.00;;;6.00;37.40;;;;;;5025832;28;20486;-64
2022/11/23 07:01:07;;;;;;;11.33;5.00;;;6.00;37.40;;;;;;5012341;28;20484;-64
2022/11/23 07:03:34;;;;;;;9.80;4.80;;;6.10;37.40;;;;;;5017358;28;20537;-64
2022/11/23 07:06:05;;;;;;;9.00;5.00;;;6.10;37.30;;;;;;5020255;28;20455;-64
2022/11/23 07:08:32;;;;;;;10.40;4.87;;;6.10;37.40;;;;;;5023696;28;20517;-64
2022/11/23 07:11:01;;;;;;;8.90;5.43;;;6.10;37.40;;;;;;5025264;28;20640;-64
2022/11/23 07:13:28;;;;;;;11.33;4.87;;;6.10;37.40;;;;;;5023617;28;20462;-64
2022/11/23 07:15:54;;;;;;;8.47;5.37;;;6.10;37.30;;;;;;5023243;28;20520;-64
2022/11/23 07:18:22;;;;;;;10.20;5.07;;;6.10;37.40;;;;;;5026416;28;20817;-64
2022/11/23 07:20:49;;;;;;;11.67;5.33;;;6.10;37.30;;;;;;5021898;28;20459;-64
2022/11/23 07:23:16;;;;;;;10.07;5.20;;;6.10;37.30;;;;;;5026275;28;20536;-64
2022/11/23 07:25:43;;;;;;;11.07;5.13;;;6.10;37.20;;;;;;5012749;28;20825;-64
2022/11/23 07:28:12;;;;;;;9.67;5.00;;;6.10;37.30;;;;;;5019140;28;20875;-64
2022/11/23 07:30:38;;;;;;;11.63;5.37;;;6.10;37.20;;;;;;5015426;28;20464;-64
2022/11/23 07:33:07;;;;;;;8.93;5.77;;;6.10;37.20;;;;;;5024054;28;20478;-64
2022/11/23 07:35:36;;;;;;;10.87;5.60;;;6.20;37.20;;;;;;5027841;28;20554;-66
2022/11/23 07:38:03;;;;;;;8.43;5.47;;;6.20;37.20;;;;;;5010591;28;20490;-65
2022/11/23 07:40:30;;;;;;;10.80;6.30;;;6.20;37.20;;;;;;5018971;28;20462;-65
2022/11/23 07:43:00;;;;;;;14.47;5.27;;;6.20;37.20;;;;;;5012611;28;20467;-66
2022/11/23 07:45:27;;;;;;;9.40;5.80;;;6.20;37.20;;;;;;5027939;28;20520;-65
2022/11/23 07:47:58;;;;;;;10.40;6.07;;;6.30;37.20;;;;;;5020320;28;20493;-65
2022/11/23 07:50:25;;;;;;;10.90;6.23;;;6.30;37.20;;;;;;5024275;28;20478;-65
2022/11/23 07:52:53;;;;;;;10.20;5.93;;;6.30;37.20;;;;;;5024013;28;20547;-65
2022/11/23 07:55:20;;;;;;;9.70;5.73;;;6.30;37.20;;;;;;5027409;28;20984;-65
2022/11/23 07:57:47;;;;;;;13.47;6.43;;;6.40;37.10;;;;;;5023231;28;20485;-65
2022/11/23 08:00:15;;;;;;;11.10;5.83;;;6.50;37.10;;;;;;5020174;28;20462;-65
2022/11/23 08:02:41;;;;;;;11.93;5.37;;;6.50;37.10;;;;;;5028667;28;20467;-65
2022/11/23 08:05:09;;;;;;;10.57;5.43;;;6.60;37.00;;;;;;5027009;28;20458;-65
2022/11/23 08:07:36;;;;;;;10.53;5.37;;;6.70;37.00;;;;;;5021090;28;20487;-66
2022/11/23 08:10:04;;;;;;;10.10;5.17;;;6.80;36.80;;;;;;5025492;28;20466;-65
2022/11/23 08:12:31;;;;;;;8.40;5.00;;;6.90;36.80;;;;;;5021234;28;20479;-65
2022/11/23 08:14:58;;;;;;;7.57;4.30;;;7.10;36.60;;;;;;5022598;28;20455;-66
2022/11/23 08:17:25;;;;;;;12.90;5.77;;;7.20;36.40;;;;;;5026719;28;20481;-65
2022/11/23 08:19:52;;;;;;;17.20;9.70;;;7.40;35.80;;;;;;5027912;28;20455;-66
2022/11/23 08:22:18;;;;;;;16.80;10.00;;;7.60;35.10;;;;;;5027224;28;20578;-66
2022/11/23 08:24:46;;;;;;;18.03;9.47;;;7.70;35.00;;;;;;5024615;28;20968;-65
2022/11/23 08:27:14;;;;;;;9.47;6.37;;;7.90;34.70;;;;;;5013109;28;20486;-66
2022/11/23 08:29:41;;;;;;;11.77;6.20;;;8.00;34.40;;;;;;5024877;28;20465;-66
2022/11/23 08:32:08;;;;;;;8.30;4.60;;;8.10;34.20;;;;;;5019856;28;20482;-66
2022/11/23 08:34:35;;;;;;;10.80;5.10;;;8.30;33.90;;;;;;5027538;28;20838;-66
2022/11/23 08:37:02;;;;;;;12.53;4.60;;;8.50;34.40;;;;;;5026512;28;21040;-66
2022/11/23 08:39:28;;;;;;;8.27;4.37;;;9.00;37.40;;;;;;5021095;28;20459;-66
2022/11/23 08:41:55;;;;;;;9.47;4.10;;;9.70;36.60;;;;;;5022184;28;20455;-66
2022/11/23 08:44:23;;;;;;;7.77;3.80;;;10.40;33.10;;;;;;5019857;28;20462;-67
2022/11/23 08:46:50;;;;;;;11.10;4.27;;;11.30;29.60;;;;;;5013707;28;20475;-65
2022/11/23 08:49:17;;;;;;;9.73;5.40;;;12.30;26.40;;;;;;5024429;28;20509;-66
2022/11/23 08:51:45;;;;;;;11.63;4.53;;;13.00;23.40;;;;;;5026977;28;20483;-66
2022/11/23 08:54:11;;;;;;;11.63;5.57;;;13.40;21.80;;;;;;5020085;28;20458;-66
2022/11/23 08:56:38;;;;;;;7.40;4.03;;;13.70;20.80;;;;;;5023337;28;20455;-66
2022/11/23 08:59:05;;;;;;;8.90;4.30;;;13.80;19.70;;;;;;5026324;28;20462;-66
2022/11/23 09:01:33;;;;;;;9.00;5.27;;;14.00;19.40;;;;;;5024171;28;20470;-66
2022/11/23 09:04:00;;;;;;;10.47;3.80;;;14.20;18.80;;;;;;5021870;28;20974;-66
2022/11/23 09:06:28;;;;;;;8.63;3.60;;;14.50;18.10;;;;;;5021539;28;21273;-66
2022/11/23 09:08:55;;;;;;;5.70;3.20;;;15.00;17.30;;;;;;5020905;28;20470;-65
2022/11/23 09:11:22;;;;;;;7.63;3.10;;;15.50;16.30;;;;;;5026941;28;20512;-66
2022/11/23 09:13:49;;;;;;;7.60;2.67;;;16.10;15.50;;;;;;5027954;28;20537;-67
2022/11/23 09:16:16;;;;;;;6.70;2.33;;;16.50;14.40;;;;;;5026893;28;20951;-66
2022/11/23 09:18:44;;;;;;;9.23;2.70;;;16.70;13.30;;;;;;5021891;28;20479;-66
2022/11/23 09:21:11;;;;;;;11.03;2.63;;;16.80;13.00;;;;;;5019898;28;21069;-66
2022/11/23 09:23:38;;;;;;;9.67;2.90;;;16.90;12.90;;;;;;5021570;28;20459;-66
2022/11/23 09:26:05;;;;;;;7.60;2.70;;;17.00;12.20;;;;;;5022581;28;20475;-66
2022/11/23 09:28:33;;;;;;;6.67;2.77;;;17.10;11.80;;;;;;5019507;28;20507;-66
2022/11/23 09:31:03;;;;;;;8.77;2.70;;;17.20;11.20;;;;;;5026995;28;20849;-66
2022/11/23 09:33:30;;;;;;;11.20;3.30;;;17.20;10.70;;;;;;5022648;28;20455;-67
2022/11/23 09:36:00;;;;;;;6.87;2.40;;;17.20;10.20;;;;;;5018535;28;20456;-67
2022/11/23 09:38:27;;;;;;;8.67;2.33;;;17.30;10.10;;;;;;5018229;28;21228;-67
2022/11/23 09:41:02;;;;;;;5.97;2.53;;;17.40;9.80;;;;;;5023764;28;20452;-67
2022/11/23 09:43:41;;;;;;;6.47;2.27;;;17.50;9.30;;;;;;5020831;28;20466;-67
2022/11/23 09:46:18;;;;;;;7.67;2.40;;;17.60;9.40;;;;;;5025199;28;20962;-67
2022/11/23 09:48:55;;;;;;;6.43;2.40;;;17.70;9.30;;;;;;5019149;28;20844;-66
2022/11/23 09:51:24;;;;;;;5.43;1.90;;;17.80;8.80;;;;;;5017174;28;20478;-67
2022/11/23 09:53:55;;;;;;;8.90;2.27;;;18.00;8.80;;;;;;5016396;28;20462;-67
2022/11/23 09:56:25;;;;;;;5.57;2.20;;;18.20;8.10;;;;;;5023154;28;20567;-67
2022/11/23 09:58:56;;;;;;;6.57;2.17;;;18.50;7.80;;;;;;5021614;28;21026;-67
2022/11/23 10:01:23;;;;;;;6.43;2.40;;;18.80;6.80;;;;;;5013948;28;20473;-67
2022/11/23 10:03:50;;;;;;;7.13;2.40;;;19.20;5.60;;;;;;5022167;28;20899;-67
2022/11/23 10:06:19;;;;;;;8.43;2.30;;;19.60;5.00;;;;;;5022136;28;20461;-67
2022/11/23 10:09:07;;;;;;;6.63;2.00;;;20.00;4.40;;;;;;5019918;28;20478;-67
2022/11/23 10:11:52;;;;;;;6.60;2.27;;;20.60;3.60;;;;;;5024736;28;20902;-67
2022/11/23 10:14:35;;;;;;;6.53;1.97;;;21.10;3.00;;;;;;5019236;28;20851;-67
2022/11/23 10:17:09;;;;;;;6.13;2.50;;;21.50;1.90;;;;;;5024155;28;20471;-67
2022/11/23 10:19:50;;;;;;;9.43;2.10;;;21.90;1.10;;;;;;5026822;28;20455;-67
2022/11/23 10:22:22;;;;;;;6.50;2.40;;;22.30;1.00;;;;;;5023834;28;20461;-67
2022/11/23 10:24:53;;;;;;;5.77;2.10;;;22.80;1.00;;;;;;5022469;28;20513;-67
2022/11/23 10:27:22;;;;;;;6.63;2.47;;;23.30;1.00;;;;;;5024321;28;20540;-67
2022/11/23 10:29:51;;;;;;;5.23;2.40;;;23.80;1.00;;;;;;5021757;28;20462;-67
2022/11/23 10:32:26;;;;;;;6.17;2.57;;;24.10;1.00;;;;;;5024354;28;20571;-67
2022/11/23 10:35:00;;;;;;;5.97;2.20;;;24.50;1.00;;;;;;5023896;28;20552;-67
2022/11/23 10:37:27;;;;;;;10.77;2.80;;;24.90;1.00;;;;;;5023284;28;20479;-67
2022/11/23 10:39:55;;;;;;;6.30;3.00;;;25.30;1.00;;;;;;5024812;28;20458;-67
2022/11/23 10:42:28;;;;;;;6.77;2.53;;;25.60;1.00;;;;;;5021642;28;20462;-67
2022/11/23 10:44:57;;;;;;;6.63;3.00;;;26.00;1.00;;;;;;5022555;28;20976;-67
2022/11/23 10:47:38;;;;;;;5.80;2.37;;;25.60;1.00;;;;;;5029749;28;20563;-67
2022/11/23 10:50:20;;;;;;;6.83;2.77;;;25.20;1.00;;;;;;5018533;28;20464;-67
2022/11/23 10:52:51;;;;;;;5.83;2.80;;;25.70;1.00;;;;;;5018799;28;20572;-66
2022/11/23 10:55:26;;;;;;;5.27;2.10;;;26.40;1.00;;;;;;5018913;28;20516;-66
2022/11/23 10:57:52;;;;;;;8.10;2.50;;;26.80;1.00;;;;;;5019076;28;20486;-66
2022/11/23 11:00:21;;;;;;;5.77;2.50;;;27.20;1.00;;;;;;5020203;28;20499;-66
2022/11/23 11:02:50;;;;;;;7.27;2.67;;;27.60;1.00;;;;;;5020925;28;20459;-66
2022/11/23 11:05:29;;;;;;;7.03;2.77;;;28.00;1.00;;;;;;5021638;28;20458;-66
2022/11/23 11:07:58;;;;;;;7.67;2.47;;;28.20;1.00;;;;;;5018460;28;20498;-66
2022/11/23 11:10:39;;;;;;;5.63;2.10;;;28.40;1.00;;;;;;5017797;28;20474;-67
2022/11/23 11:13:26;;;;;;;6.57;2.53;;;28.50;1.00;;;;;;5021631;28;20523;-68
2022/11/23 11:15:55;;;;;;;6.13;2.53;;;28.50;1.00;;;;;;5019711;28;20486;-68
2022/11/23 11:18:27;;;;;;;6.90;2.30;;;28.40;1.00;;;;;;5017748;28;20482;-67
2022/11/23 11:21:01;;;;;;;8.37;2.87;;;28.40;1.00;;;;;;5024955;28;20466;-66
2022/11/23 11:23:29;;;;;;;5.43;2.03;;;28.30;1.00;;;;;;5024445;28;20520;-66
2022/11/23 11:26:07;;;;;;;6.43;2.47;;;28.20;1.00;;;;;;5024049;28;20462;-66
2022/11/23 11:28:37;;;;;;;5.80;1.87;;;28.00;1.00;;;;;;5023083;28;20488;-66
2022/11/23 11:31:22;;;;;;;5.37;1.70;;;28.00;1.00;;;;;;5024084;28;20474;-67
2022/11/23 11:33:58;;;;;;;4.40;1.47;;;27.20;1.00;;;;;;5021871;28;20456;-67
2022/11/23 11:36:30;;;;;;;4.20;1.60;;;26.90;1.00;;;;;;5021671;28;20849;-66
2022/11/23 11:39:02;;;;;;;8.13;2.10;;;26.70;1.00;;;;;;5021526;28;20831;-67
2022/11/23 11:41:31;;;;;;;5.10;1.70;;;26.60;1.00;;;;;;5018672;28;20839;-66
2022/11/23 11:44:07;;;;;;;6.30;2.00;;;26.40;1.00;;;;;;5023093;28;20489;-66
2022/11/23 11:46:38;;;;;;;6.50;2.30;;;26.00;1.00;;;;;;5023501;28;20477;-66
2022/11/23 11:49:11;;;;;;;5.90;1.80;;;25.80;1.00;;;;;;5022684;28;20457;-66
2022/11/23 11:51:41;;;;;;;8.67;2.07;;;25.60;1.00;;;;;;5018470;28;20479;-68
2022/11/23 11:54:17;;;;;;;6.20;2.37;;;25.50;1.00;;;;;;5025846;28;20551;-67
2022/11/23 11:56:49;;;;;;;5.80;1.93;;;25.30;1.00;;;;;;5023308;28;20516;-67
2022/11/23 11:59:25;;;;;;;6.97;2.07;;;24.00;1.00;;;;;;5021453;28;20468;-66
2022/11/23 12:01:57;;;;;;;4.97;1.70;;;23.20;1.00;;;;;;5021645;28;20470;-66
2022/11/23 12:04:30;;;;;;;5.70;1.00;;;23.00;1.00;;;;;;5025348;28;21034;-67
2022/11/23 12:07:05;;;;;;;6.10;1.40;;;22.60;1.00;;;;;;5025746;28;20489;-66
2022/11/23 12:09:38;;;;;;;8.70;1.73;;;21.90;1.00;;;;;;5026132;28;20454;-66
2022/11/23 12:12:14;;;;;;;5.20;1.37;;;21.70;1.00;;;;;;5026815;28;20486;-66
2022/11/23 12:14:41;;;;;;;6.37;1.50;;;21.50;1.00;;;;;;5022638;28;20609;-66
2022/11/23 12:17:31;;;;;;;7.50;1.10;;;21.40;1.00;;;;;;5020357;28;20489;-66
2022/11/23 12:20:08;;;;;;;4.20;1.10;;;20.50;1.00;;;;;;5025026;28;20978;-66
2022/11/23 12:22:45;;;;;;;8.30;2.93;;;19.40;1.00;;;;;;5022982;28;20467;-66
2022/11/23 12:25:21;;;;;;;5.40;1.30;;;19.10;1.00;;;;;;5020631;28;21190;-66
2022/11/23 12:27:59;;;;;;;4.50;1.07;;;19.00;1.00;;;;;;5026485;28;20471;-66
2022/11/23 12:30:35;;;;;;;4.90;1.10;;;19.00;1.00;;;;;;5018810;28;20462;-66
2022/11/23 12:33:51;;;;;;;6.03;1.63;;;19.00;1.00;;;;;;5026893;28;20482;-66
2022/11/23 12:36:43;;;;;;;4.40;1.00;;;18.80;1.00;;;;;;4990965;28;20458;-66
2022/11/23 12:39:24;;;;;;;6.00;1.60;;;18.40;1.00;;;;;;5028061;28;20978;-66
2022/11/23 12:41:57;;;;;;;4.20;0.90;;;18.00;1.00;;;;;;5022070;28;20451;-66
2022/11/23 12:44:50;;;;;;;4.67;1.00;;;17.70;1.00;;;;;;5019935;28;20950;-66
2022/11/23 12:47:29;;;;;;;4.13;1.10;;;17.30;1.00;;;;;;5018847;28;20516;-66
2022/11/23 12:50:03;;;;;;;6.27;1.47;;;16.90;1.00;;;;;;5013038;28;20470;-65
2022/11/23 12:52:41;;;;;;;3.73;0.80;;;16.60;1.00;;;;;;5015363;28;20482;-66
2022/11/23 12:55:19;;;;;;;7.63;2.33;;;16.30;1.00;;;;;;5023179;28;20463;-66
2022/11/23 12:57:53;;;;;;;6.33;1.53;;;16.00;1.60;;;;;;5025062;28;20478;-66
2022/11/23 13:00:22;;;;;;;6.90;2.00;;;15.90;1.60;;;;;;5024936;28;20465;-66
2022/11/23 13:03:37;;;;;;;6.17;1.57;;;15.70;2.00;;;;;;5017603;28;20455;-66
2022/11/23 13:06:26;;;;;;;5.60;1.10;;;15.50;2.30;;;;;;5018029;28;20827;-66